sensor_id;sensor_type;location;lat;lon;timestamp;P1;durP1;ratioP1;P2;durP2;ratioP2
9234;SDS011;4652;42.716;23.218;2023-06-04T00:03:36;9.13;;;8.13;;
9234;SDS011;4652;42.716;23.218;2023-06-04T00:10:20;11.07;;;9.97;;
9234;SDS011;4652;42.716;23.218;2023-06-04T00:17:02;10.40;;;9.07;;
9234;SDS011;4652;42.716;23.218;2023-06-04T00:23:44;14.57;;;12.20;;
9234;SDS011;4652;42.716;23.218;2023-06-04T00:30:28;10.27;;;8.97;;
9234;SDS011;4652;42.716;23.218;2023-06-04T00:37:10;10.53;;;8.53;;
9234;SDS011;4652;42.716;23.218;2023-06-04T00:43:52;11.97;;;8.20;;
9234;SDS011;4652;42.716;23.218;2023-06-04T00:50:38;9.27;;;8.40;;
9234;SDS011;4652;42.716;23.218;2023-06-04T00:57:21;8.40;;;7.63;;
9234;SDS011;4652;42.716;23.218;2023-06-04T01:08:19;9.17;;;7.30;;
9234;SDS011;4652;42.716;23.218;2023-06-04T01:15:02;7.93;;;7.23;;
9234;SDS011;4652;42.716;23.218;2023-06-04T01:21:44;9.57;;;8.67;;
9234;SDS011;4652;42.716;23.218;2023-06-04T01:28:30;14.60;;;9.10;;
9234;SDS011;4652;42.716;23.218;2023-06-04T01:35:14;12.87;;;9.10;;
9234;SDS011;4652;42.716;23.218;2023-06-04T01:41:56;9.23;;;8.33;;
9234;SDS011;4652;42.716;23.218;2023-06-04T01:48:40;9.60;;;8.63;;
9234;SDS011;4652;42.716;23.218;2023-06-04T01:55:22;5.27;;;4.77;;
9234;SDS011;4652;42.716;23.218;2023-06-04T02:02:06;4.67;;;3.90;;
9234;SDS011;4652;42.716;23.218;2023-06-04T02:08:49;4.13;;;3.83;;
9234;SDS011;4652;42.716;23.218;2023-06-04T02:15:34;5.17;;;4.10;;
9234;SDS011;4652;42.716;23.218;2023-06-04T02:22:16;5.43;;;3.83;;
9234;SDS011;4652;42.716;23.218;2023-06-04T02:28:59;5.87;;;3.80;;
9234;SDS011;4652;42.716;23.218;2023-06-04T02:35:41;4.50;;;3.60;;
9234;SDS011;4652;42.716;23.218;2023-06-04T02:42:23;3.83;;;3.53;;
9234;SDS011;4652;42.716;23.218;2023-06-04T02:49:07;4.20;;;3.90;;
9234;SDS011;4652;42.716;23.218;2023-06-04T02:55:48;3.97;;;3.40;;
9234;SDS011;4652;42.716;23.218;2023-06-04T03:02:33;3.90;;;3.60;;
9234;SDS011;4652;42.716;23.218;2023-06-04T03:09:16;4.07;;;3.67;;
9234;SDS011;4652;42.716;23.218;2023-06-04T03:15:58;4.40;;;4.00;;
9234;SDS011;4652;42.716;23.218;2023-06-04T03:22:41;3.97;;;3.67;;
9234;SDS011;4652;42.716;23.218;2023-06-04T03:29:24;4.23;;;3.70;;
9234;SDS011;4652;42.716;23.218;2023-06-04T03:36:06;4.17;;;3.77;;
9234;SDS011;4652;42.716;23.218;2023-06-04T03:42:49;4.10;;;3.70;;
9234;SDS011;4652;42.716;23.218;2023-06-04T03:49:32;4.50;;;4.20;;
9234;SDS011;4652;42.716;23.218;2023-06-04T03:56:14;4.57;;;4.17;;
9234;SDS011;4652;42.716;23.218;2023-06-04T04:02:56;5.13;;;4.73;;
9234;SDS011;4652;42.716;23.218;2023-06-04T04:09:39;5.70;;;4.70;;
9234;SDS011;4652;42.716;23.218;2023-06-04T04:16:21;5.83;;;5.13;;
9234;SDS011;4652;42.716;23.218;2023-06-04T04:23:03;6.70;;;5.70;;
9234;SDS011;4652;42.716;23.218;2023-06-04T04:29:47;9.13;;;8.20;;
9234;SDS011;4652;42.716;23.218;2023-06-04T04:36:30;9.27;;;8.37;;
9234;SDS011;4652;42.716;23.218;2023-06-04T04:43:13;9.57;;;8.70;;
9234;SDS011;4652;42.716;23.218;2023-06-04T04:49:56;12.07;;;10.87;;
9234;SDS011;4652;42.716;23.218;2023-06-04T04:56:38;11.73;;;10.37;;
9234;SDS011;4652;42.716;23.218;2023-06-04T05:03:20;10.93;;;9.83;;
9234;SDS011;4652;42.716;23.218;2023-06-04T05:10:04;11.50;;;8.70;;
9234;SDS011;4652;42.716;23.218;2023-06-04T05:16:47;10.17;;;9.00;;
9234;SDS011;4652;42.716;23.218;2023-06-04T05:23:29;9.20;;;8.40;;
9234;SDS011;4652;42.716;23.218;2023-06-04T05:30:14;10.70;;;9.57;;
9234;SDS011;4652;42.716;23.218;2023-06-04T05:36:56;9.90;;;8.90;;
9234;SDS011;4652;42.716;23.218;2023-06-04T05:43:38;7.93;;;7.13;;
9234;SDS011;4652;42.716;23.218;2023-06-04T05:50:22;7.93;;;7.17;;
9234;SDS011;4652;42.716;23.218;2023-06-04T05:57:04;9.33;;;6.90;;
9234;SDS011;4652;42.716;23.218;2023-06-04T06:03:47;8.27;;;7.30;;
9234;SDS011;4652;42.716;23.218;2023-06-04T06:10:31;8.80;;;6.63;;
9234;SDS011;4652;42.716;23.218;2023-06-04T06:17:13;7.80;;;6.40;;
9234;SDS011;4652;42.716;23.218;2023-06-04T06:23:55;7.33;;;6.63;;
9234;SDS011;4652;42.716;23.218;2023-06-04T06:30:39;7.37;;;6.67;;
9234;SDS011;4652;42.716;23.218;2023-06-04T06:37:21;7.97;;;7.00;;
9234;SDS011;4652;42.716;23.218;2023-06-04T06:44:03;8.73;;;7.83;;
9234;SDS011;4652;42.716;23.218;2023-06-04T06:50:47;7.93;;;7.13;;
9234;SDS011;4652;42.716;23.218;2023-06-04T06:57:30;9.83;;;7.23;;
9234;SDS011;4652;42.716;23.218;2023-06-04T07:08:19;12.63;;;7.43;;
9234;SDS011;4652;42.716;23.218;2023-06-04T07:15:01;10.03;;;7.37;;
9234;SDS011;4652;42.716;23.218;2023-06-04T07:21:44;8.43;;;7.13;;
9234;SDS011;4652;42.716;23.218;2023-06-04T07:28:27;7.90;;;7.10;;
9234;SDS011;4652;42.716;23.218;2023-06-04T07:35:09;9.23;;;8.33;;
9234;SDS011;4652;42.716;23.218;2023-06-04T07:41:52;11.17;;;8.30;;
9234;SDS011;4652;42.716;23.218;2023-06-04T07:48:38;13.53;;;9.13;;
9234;SDS011;4652;42.716;23.218;2023-06-04T07:55:21;12.00;;;9.63;;
9234;SDS011;4652;42.716;23.218;2023-06-04T08:02:04;10.97;;;9.10;;
9234;SDS011;4652;42.716;23.218;2023-06-04T08:08:48;11.30;;;10.17;;
9234;SDS011;4652;42.716;23.218;2023-06-04T08:15:30;12.20;;;9.70;;
9234;SDS011;4652;42.716;23.218;2023-06-04T08:22:13;11.37;;;10.17;;
9234;SDS011;4652;42.716;23.218;2023-06-04T08:28:56;11.57;;;10.23;;
9234;SDS011;4652;42.716;23.218;2023-06-04T08:35:39;10.03;;;9.07;;
9234;SDS011;4652;42.716;23.218;2023-06-04T08:42:22;35.70;;;15.60;;
9234;SDS011;4652;42.716;23.218;2023-06-04T10:19:00;13.90;;;11.47;;
9234;SDS011;4652;42.716;23.218;2023-06-04T10:25:42;13.53;;;10.47;;
9234;SDS011;4652;42.716;23.218;2023-06-04T10:32:27;10.93;;;9.83;;
9234;SDS011;4652;42.716;23.218;2023-06-04T10:39:12;10.00;;;8.93;;
9234;SDS011;4652;42.716;23.218;2023-06-04T10:45:55;13.00;;;9.63;;
9234;SDS011;4652;42.716;23.218;2023-06-04T10:52:37;14.63;;;10.27;;
9234;SDS011;4652;42.716;23.218;2023-06-04T10:59:21;23.70;;;11.40;;
9234;SDS011;4652;42.716;23.218;2023-06-04T11:06:14;9.73;;;8.63;;
9234;SDS011;4652;42.716;23.218;2023-06-04T11:12:58;10.03;;;8.97;;
9234;SDS011;4652;42.716;23.218;2023-06-04T11:19:42;9.37;;;8.47;;
9234;SDS011;4652;42.716;23.218;2023-06-04T11:26:29;9.37;;;8.47;;
9234;SDS011;4652;42.716;23.218;2023-06-04T11:33:11;10.13;;;8.17;;
9234;SDS011;4652;42.716;23.218;2023-06-04T11:39:55;9.50;;;8.52;;
9234;SDS011;4652;42.716;23.218;2023-06-04T11:46:39;9.43;;;8.63;;
9234;SDS011;4652;42.716;23.218;2023-06-04T11:53:23;15.70;;;9.82;;
9234;SDS011;4652;42.716;23.218;2023-06-04T12:00:08;9.80;;;8.90;;
9234;SDS011;4652;42.716;23.218;2023-06-04T12:06:51;19.43;;;11.53;;
9234;SDS011;4652;42.716;23.218;2023-06-04T12:13:36;12.43;;;9.93;;
9234;SDS011;4652;42.716;23.218;2023-06-04T12:20:27;11.40;;;10.17;;
9234;SDS011;4652;42.716;23.218;2023-06-04T12:27:14;11.15;;;10.20;;
9234;SDS011;4652;42.716;23.218;2023-06-04T12:33:56;10.17;;;9.37;;
9234;SDS011;4652;42.716;23.218;2023-06-04T12:40:40;10.53;;;9.63;;
9234;SDS011;4652;42.716;23.218;2023-06-04T12:47:22;10.83;;;9.77;;
9234;SDS011;4652;42.716;23.218;2023-06-04T12:54:05;10.13;;;9.13;;
9234;SDS011;4652;42.716;23.218;2023-06-04T13:08:07;11.53;;;10.53;;
9234;SDS011;4652;42.716;23.218;2023-06-04T13:14:49;11.33;;;10.40;;
9234;SDS011;4652;42.716;23.218;2023-06-04T13:21:31;10.43;;;9.50;;
9234;SDS011;4652;42.716;23.218;2023-06-04T13:28:15;11.77;;;9.10;;
9234;SDS011;4652;42.716;23.218;2023-06-04T13:34:57;10.57;;;9.67;;
9234;SDS011;4652;42.716;23.218;2023-06-04T13:41:39;10.07;;;8.90;;
9234;SDS011;4652;42.716;23.218;2023-06-04T13:48:23;11.13;;;9.30;;
9234;SDS011;4652;42.716;23.218;2023-06-04T13:55:05;10.10;;;9.17;;
9234;SDS011;4652;42.716;23.218;2023-06-04T14:01:48;9.53;;;8.50;;
9234;SDS011;4652;42.716;23.218;2023-06-04T14:08:31;15.67;;;9.43;;
9234;SDS011;4652;42.716;23.218;2023-06-04T14:15:13;11.50;;;8.67;;
9234;SDS011;4652;42.716;23.218;2023-06-04T14:21:55;9.90;;;9.00;;
9234;SDS011;4652;42.716;23.218;2023-06-04T14:28:38;9.30;;;8.40;;
9234;SDS011;4652;42.716;23.218;2023-06-04T14:35:21;9.27;;;8.40;;
9234;SDS011;4652;42.716;23.218;2023-06-04T14:42:02;9.57;;;8.60;;
9234;SDS011;4652;42.716;23.218;2023-06-04T14:48:47;13.93;;;11.70;;
9234;SDS011;4652;42.716;23.218;2023-06-04T14:55:29;14.77;;;12.13;;
9234;SDS011;4652;42.716;23.218;2023-06-04T15:02:11;15.70;;;12.07;;
9234;SDS011;4652;42.716;23.218;2023-06-04T15:09:00;14.53;;;13.07;;
9234;SDS011;4652;42.716;23.218;2023-06-04T15:15:44;16.63;;;14.87;;
9234;SDS011;4652;42.716;23.218;2023-06-04T15:22:26;18.73;;;13.70;;
9234;SDS011;4652;42.716;23.218;2023-06-04T15:29:09;17.33;;;14.87;;
9234;SDS011;4652;42.716;23.218;2023-06-04T15:35:51;16.87;;;15.20;;
9234;SDS011;4652;42.716;23.218;2023-06-04T15:42:33;17.53;;;15.63;;
9234;SDS011;4652;42.716;23.218;2023-06-04T15:49:17;17.13;;;15.53;;
9234;SDS011;4652;42.716;23.218;2023-06-04T15:55:59;19.40;;;17.23;;
9234;SDS011;4652;42.716;23.218;2023-06-04T16:02:41;18.57;;;16.67;;
9234;SDS011;4652;42.716;23.218;2023-06-04T16:09:24;21.67;;;19.37;;
9234;SDS011;4652;42.716;23.218;2023-06-04T16:16:06;20.30;;;18.30;;
9234;SDS011;4652;42.716;23.218;2023-06-04T16:22:49;18.00;;;16.20;;
9234;SDS011;4652;42.716;23.218;2023-06-04T16:29:32;12.23;;;10.80;;
9234;SDS011;4652;42.716;23.218;2023-06-04T16:36:14;12.43;;;11.17;;
9234;SDS011;4652;42.716;23.218;2023-06-04T16:42:56;10.00;;;8.63;;
9234;SDS011;4652;42.716;23.218;2023-06-04T16:49:39;8.00;;;7.40;;
9234;SDS011;4652;42.716;23.218;2023-06-04T16:56:21;8.67;;;7.77;;
9234;SDS011;4652;42.716;23.218;2023-06-04T17:03:03;8.63;;;7.73;;
9234;SDS011;4652;42.716;23.218;2023-06-04T17:09:47;7.97;;;7.27;;
9234;SDS011;4652;42.716;23.218;2023-06-04T17:16:29;7.60;;;6.87;;
9234;SDS011;4652;42.716;23.218;2023-06-04T17:23:20;7.70;;;7.10;;
9234;SDS011;4652;42.716;23.218;2023-06-04T17:30:06;7.80;;;7.07;;
9234;SDS011;4652;42.716;23.218;2023-06-04T17:36:48;9.90;;;8.10;;
9234;SDS011;4652;42.716;23.218;2023-06-04T17:43:30;7.90;;;7.20;;
9234;SDS011;4652;42.716;23.218;2023-06-04T17:50:14;8.60;;;7.73;;
9234;SDS011;4652;42.716;23.218;2023-06-04T17:56:55;7.60;;;6.90;;
9234;SDS011;4652;42.716;23.218;2023-06-04T18:03:37;8.80;;;8.00;;
9234;SDS011;4652;42.716;23.218;2023-06-04T18:10:21;10.07;;;8.00;;
9234;SDS011;4652;42.716;23.218;2023-06-04T18:17:03;8.03;;;7.43;;
9234;SDS011;4652;42.716;23.218;2023-06-04T18:23:45;10.10;;;8.73;;
9234;SDS011;4652;42.716;23.218;2023-06-04T18:30:30;9.17;;;8.30;;
9234;SDS011;4652;42.716;23.218;2023-06-04T18:37:12;9.83;;;7.47;;
9234;SDS011;4652;42.716;23.218;2023-06-04T18:43:55;11.90;;;7.67;;
9234;SDS011;4652;42.716;23.218;2023-06-04T18:50:38;12.63;;;7.87;;
9234;SDS011;4652;42.716;23.218;2023-06-04T18:57:20;9.20;;;7.20;;
9234;SDS011;4652;42.716;23.218;2023-06-04T19:18:31;10.17;;;7.23;;
9234;SDS011;4652;42.716;23.218;2023-06-04T19:25:13;8.67;;;7.13;;
9234;SDS011;4652;42.716;23.218;2023-06-04T19:31:55;8.57;;;7.33;;
9234;SDS011;4652;42.716;23.218;2023-06-04T19:38:39;8.03;;;7.03;;
9234;SDS011;4652;42.716;23.218;2023-06-04T19:45:24;9.23;;;7.20;;
9234;SDS011;4652;42.716;23.218;2023-06-04T19:52:06;8.07;;;7.30;;
9234;SDS011;4652;42.716;23.218;2023-06-04T19:58:49;10.63;;;9.57;;
9234;SDS011;4652;42.716;23.218;2023-06-04T20:05:32;10.83;;;9.73;;
9234;SDS011;4652;42.716;23.218;2023-06-04T20:12:14;17.43;;;10.87;;
9234;SDS011;4652;42.716;23.218;2023-06-04T20:18:58;12.83;;;11.57;;
9234;SDS011;4652;42.716;23.218;2023-06-04T20:25:40;17.10;;;12.47;;
9234;SDS011;4652;42.716;23.218;2023-06-04T20:32:22;14.90;;;13.30;;
9234;SDS011;4652;42.716;23.218;2023-06-04T20:39:05;15.13;;;13.63;;
9234;SDS011;4652;42.716;23.218;2023-06-04T20:45:47;17.33;;;13.37;;
9234;SDS011;4652;42.716;23.218;2023-06-04T20:52:32;15.87;;;12.97;;
9234;SDS011;4652;42.716;23.218;2023-06-04T20:59:15;13.70;;;12.37;;
9234;SDS011;4652;42.716;23.218;2023-06-04T21:05:57;15.17;;;12.67;;
9234;SDS011;4652;42.716;23.218;2023-06-04T21:12:39;14.67;;;12.17;;
9234;SDS011;4652;42.716;23.218;2023-06-04T21:19:22;14.27;;;11.53;;
9234;SDS011;4652;42.716;23.218;2023-06-04T21:26:04;14.07;;;12.53;;
9234;SDS011;4652;42.716;23.218;2023-06-04T21:32:46;15.67;;;14.07;;
9234;SDS011;4652;42.716;23.218;2023-06-04T21:39:30;15.00;;;13.57;;
9234;SDS011;4652;42.716;23.218;2023-06-04T21:46:12;16.07;;;14.43;;
9234;SDS011;4652;42.716;23.218;2023-06-04T21:52:53;17.07;;;13.37;;
9234;SDS011;4652;42.716;23.218;2023-06-04T21:59:37;16.97;;;14.53;;
9234;SDS011;4652;42.716;23.218;2023-06-04T22:06:19;16.20;;;14.40;;
9234;SDS011;4652;42.716;23.218;2023-06-04T22:13:01;16.07;;;14.43;;
9234;SDS011;4652;42.716;23.218;2023-06-04T22:19:44;17.00;;;13.60;;
9234;SDS011;4652;42.716;23.218;2023-06-04T22:26:26;14.47;;;12.67;;
9234;SDS011;4652;42.716;23.218;2023-06-04T22:33:08;14.33;;;12.93;;
9234;SDS011;4652;42.716;23.218;2023-06-04T22:39:51;14.73;;;12.27;;
9234;SDS011;4652;42.716;23.218;2023-06-04T22:46:34;15.70;;;13.73;;
9234;SDS011;4652;42.716;23.218;2023-06-04T22:53:16;14.30;;;12.90;;
9234;SDS011;4652;42.716;23.218;2023-06-04T23:00:00;14.57;;;13.07;;
9234;SDS011;4652;42.716;23.218;2023-06-04T23:06:42;17.40;;;12.63;;
9234;SDS011;4652;42.716;23.218;2023-06-04T23:13:24;14.77;;;13.27;;
9234;SDS011;4652;42.716;23.218;2023-06-04T23:20:08;15.23;;;12.33;;
9234;SDS011;4652;42.716;23.218;2023-06-04T23:26:51;14.63;;;12.73;;
9234;SDS011;4652;42.716;23.218;2023-06-04T23:33:33;18.93;;;12.87;;
9234;SDS011;4652;42.716;23.218;2023-06-04T23:40:17;16.40;;;13.17;;
9234;SDS011;4652;42.716;23.218;2023-06-04T23:46:59;20.80;;;14.77;;
9234;SDS011;4652;42.716;23.218;2023-06-04T23:53:41;15.53;;;13.70;;
